Time;durP1;ratioP1;P1;durP2;ratioP2;P2;SDS_P1;SDS_P2;PMS_P1;PMS_P2;Temp;Humidity;BMP_temperature;BMP_pressure;BME280_temperature;BME280_humidity;BME280_pressure;Samples;Min_cycle;Max_cycle;Signal;HPM_P1;HPM_P2
2022/05/12 00:01:54;;;;;;;6.30;1.40;;;17.10;63.00;;;;;;5135436;27;20039;-64
2022/05/12 00:04:20;;;;;;;5.13;1.60;;;17.10;63.00;;;;;;5130325;27;20055;-64
2022/05/12 00:06:46;;;;;;;5.30;1.48;;;17.10;62.90;;;;;;5122150;27;20031;-65
2022/05/12 00:09:12;;;;;;;6.22;1.50;;;17.00;62.80;;;;;;5135087;27;20075;-64
2022/05/12 00:11:38;;;;;;;5.93;1.52;;;17.10;62.80;;;;;;5124145;27;20455;-64
2022/05/12 00:14:03;;;;;;;4.20;1.40;;;17.00;62.70;;;;;;5122365;27;20087;-65
2022/05/12 00:16:29;;;;;;;6.45;1.55;;;17.00;62.80;;;;;;5127193;27;20435;-64
2022/05/12 00:18:55;;;;;;;6.93;1.73;;;17.00;62.80;;;;;;5136115;27;20023;-64
2022/05/12 00:21:21;;;;;;;5.85;1.30;;;16.90;62.70;;;;;;5127187;27;20093;-64
2022/05/12 00:23:56;;;;;;;5.43;1.40;;;16.90;62.70;;;;;;5117208;27;20028;-64
2022/05/12 00:26:31;;;;;;;5.90;1.40;;;16.90;62.80;;;;;;5141737;27;20349;-65
2022/05/12 00:29:02;;;;;;;5.53;1.40;;;16.80;62.70;;;;;;5118622;27;20024;-65
2022/05/12 00:31:29;;;;;;;;;;;16.80;62.70;;;;;;5131698;27;20090;-66
2022/05/12 00:33:55;;;;;;;7.18;1.77;;;16.80;62.70;;;;;;5131181;27;19975;-64
2022/05/12 00:36:21;;;;;;;6.75;1.45;;;16.70;62.70;;;;;;5127604;27;20444;-65
2022/05/12 00:38:47;;;;;;;5.50;1.38;;;16.70;62.60;;;;;;5115672;27;20031;-65
2022/05/12 00:41:13;;;;;;;6.60;1.30;;;16.70;62.60;;;;;;5122506;27;20023;-65
2022/05/12 00:43:42;;;;;;;5.43;1.52;;;16.70;62.60;;;;;;5125743;27;20035;-64
2022/05/12 00:46:17;;;;;;;9.30;1.70;;;16.70;62.50;;;;;;5116990;27;20444;-65
2022/05/12 00:48:44;;;;;;;5.50;1.38;;;16.70;62.50;;;;;;5117571;27;20096;-64
2022/05/12 00:51:23;;;;;;;6.18;1.48;;;16.70;62.60;;;;;;5130802;27;20081;-64
2022/05/12 00:53:51;;;;;;;5.47;1.20;;;16.70;62.60;;;;;;5118472;27;20031;-65
2022/05/12 00:56:21;;;;;;;6.70;1.60;;;16.70;62.60;;;;;;5123095;27;20098;-66
2022/05/12 00:58:49;;;;;;;6.43;1.45;;;16.70;62.60;;;;;;5133473;27;20083;-65
2022/05/12 01:01:15;;;;;;;6.68;1.80;;;16.60;62.60;;;;;;5129918;27;20363;-66
2022/05/12 01:03:43;;;;;;;6.68;1.30;;;16.60;62.70;;;;;;5115841;27;20035;-65
2022/05/12 01:06:11;;;;;;;5.30;1.50;;;16.60;62.80;;;;;;5126218;27;20039;-65
2022/05/12 01:08:37;;;;;;;5.93;1.30;;;16.50;62.80;;;;;;5116114;27;20045;-65
2022/05/12 01:11:10;;;;;;;5.60;1.65;;;16.50;63.00;;;;;;5120794;27;20427;-64
2022/05/12 01:13:36;;;;;;;6.28;1.38;;;16.40;63.00;;;;;;5114808;27;20087;-66
2022/05/12 01:16:03;;;;;;;9.00;1.70;;;16.30;63.20;;;;;;5129230;27;20031;-65
2022/05/12 01:18:31;;;;;;;4.38;1.20;;;16.30;63.20;;;;;;5098353;28;20046;-66
2022/05/12 01:20:58;;;;;;;4.57;1.50;;;16.40;63.90;;;;;;5120684;27;20059;-65
2022/05/12 01:23:30;;;;;;;6.78;1.70;;;16.30;63.20;;;;;;5134021;27;20462;-65
2022/05/12 01:26:02;;;;;;;6.78;1.17;;;16.40;63.20;;;;;;5133627;27;20451;-66
2022/05/12 01:28:28;;;;;;;7.32;1.55;;;16.30;63.20;;;;;;5116738;27;20036;-65
2022/05/12 01:30:54;;;;;;;6.88;1.77;;;16.30;63.20;;;;;;5129307;27;20023;-65
2022/05/12 01:33:20;;;;;;;5.68;1.48;;;16.30;63.30;;;;;;5123881;27;20126;-66
2022/05/12 01:35:46;;;;;;;5.95;1.35;;;16.20;63.40;;;;;;5119705;27;20479;-66
2022/05/12 01:38:13;;;;;;;6.43;1.70;;;16.20;63.30;;;;;;5119359;27;20031;-66
2022/05/12 01:40:39;;;;;;;7.53;1.60;;;16.20;63.40;;;;;;5120706;27;20023;-65
2022/05/12 01:43:06;;;;;;;9.98;1.77;;;16.20;63.50;;;;;;5129065;27;20042;-65
2022/05/12 01:45:32;;;;;;;6.10;1.70;;;16.10;63.60;;;;;;5132838;27;20015;-65
2022/05/12 01:47:58;;;;;;;6.75;1.60;;;16.10;63.70;;;;;;5125112;27;20019;-65
2022/05/12 01:50:24;;;;;;;6.63;1.42;;;16.10;63.70;;;;;;5104991;27;20102;-66
2022/05/12 01:52:49;;;;;;;5.95;1.33;;;16.10;63.70;;;;;;5114545;27;20067;-65
2022/05/12 01:55:19;;;;;;;4.22;1.48;;;16.10;63.70;;;;;;5118579;27;20031;-65
2022/05/12 01:57:45;;;;;;;5.75;1.40;;;16.00;63.80;;;;;;5125619;27;20110;-65
2022/05/12 02:00:23;;;;;;;7.05;1.60;;;16.00;63.80;;;;;;5118627;27;20111;-65
2022/05/12 02:02:49;;;;;;;5.45;1.60;;;15.90;63.90;;;;;;5118451;27;20047;-65
2022/05/12 02:05:16;;;;;;;6.72;1.65;;;16.00;64.10;;;;;;5119066;27;20019;-65
2022/05/12 02:07:43;;;;;;;8.82;1.90;;;15.90;64.10;;;;;;5125507;27;20409;-65
2022/05/12 02:10:13;;;;;;;6.47;1.40;;;15.90;64.10;;;;;;5114993;27;20030;-65
2022/05/12 02:12:38;;;;;;;12.30;2.17;;;15.90;64.10;;;;;;5129138;27;20042;-65
2022/05/12 02:15:05;;;;;;;7.53;1.92;;;15.90;64.10;;;;;;5130529;27;20401;-65
2022/05/12 02:17:32;;;;;;;8.23;1.95;;;15.90;64.20;;;;;;5125999;27;20421;-65
2022/05/12 02:19:58;;;;;;;7.60;2.10;;;15.90;64.30;;;;;;5122066;27;20069;-65
2022/05/12 02:22:24;;;;;;;5.03;1.65;;;15.90;64.30;;;;;;5125221;27;20031;-65
2022/05/12 02:24:49;;;;;;;7.22;1.75;;;15.90;64.30;;;;;;5134065;27;20471;-65
2022/05/12 02:27:15;;;;;;;4.95;1.45;;;15.90;64.30;;;;;;5116874;27;20384;-65
2022/05/12 02:29:40;;;;;;;6.13;1.60;;;15.80;64.30;;;;;;5119692;27;20022;-65
2022/05/12 02:32:07;;;;;;;4.65;1.67;;;15.80;64.40;;;;;;5132376;27;20110;-65
2022/05/12 02:34:32;;;;;;;5.20;1.73;;;15.80;64.50;;;;;;5115289;28;20046;-65
2022/05/12 02:37:01;;;;;;;8.32;2.00;;;15.80;64.60;;;;;;5131812;27;20034;-64
2022/05/12 02:39:32;;;;;;;6.28;1.73;;;15.80;65.40;;;;;;5131246;27;20067;-64
2022/05/12 02:41:58;;;;;;;10.23;2.38;;;15.80;64.80;;;;;;5132472;27;20459;-64
2022/05/12 02:44:23;;;;;;;7.57;2.10;;;15.70;64.80;;;;;;5128836;27;20054;-64
2022/05/12 02:46:49;;;;;;;8.55;2.30;;;15.70;64.90;;;;;;5130486;27;20029;-65
2022/05/12 02:49:14;;;;;;;9.82;2.17;;;15.70;65.10;;;;;;5119002;27;20448;-64
2022/05/12 02:51:43;;;;;;;6.15;1.98;;;15.70;65.10;;;;;;5130618;27;20027;-65
2022/05/12 02:54:11;;;;;;;6.50;2.13;;;15.70;65.20;;;;;;5115285;28;20438;-64
2022/05/12 02:56:38;;;;;;;7.75;2.60;;;15.70;65.30;;;;;;5127521;28;20448;-64
2022/05/12 02:59:05;;;;;;;6.68;1.98;;;15.60;65.30;;;;;;5120401;27;20348;-64
2022/05/12 03:01:31;;;;;;;9.48;2.38;;;15.60;65.50;;;;;;5116972;28;20030;-64
2022/05/12 03:03:57;;;;;;;6.13;2.25;;;15.60;65.60;;;;;;5128057;28;20027;-65
2022/05/12 03:06:22;;;;;;;8.35;2.55;;;15.60;65.60;;;;;;5124391;27;20028;-64
2022/05/12 03:08:48;;;;;;;9.45;2.67;;;15.60;65.70;;;;;;5133357;27;20024;-64
2022/05/12 03:11:14;;;;;;;9.02;2.83;;;15.60;65.90;;;;;;5130128;28;20027;-64
2022/05/12 03:13:39;;;;;;;8.00;2.42;;;15.50;65.90;;;;;;5122883;28;20024;-64
2022/05/12 03:16:05;;;;;;;7.72;2.95;;;15.50;66.00;;;;;;5123144;28;20032;-64
2022/05/12 03:18:30;;;;;;;8.10;2.70;;;15.50;66.10;;;;;;5113757;28;20024;-64
2022/05/12 03:20:56;;;;;;;9.15;3.42;;;15.50;66.20;;;;;;5129362;28;20548;-64
2022/05/12 03:23:22;;;;;;;7.15;2.95;;;15.50;66.30;;;;;;5128047;27;20028;-64
2022/05/12 03:25:49;;;;;;;7.40;3.13;;;15.50;66.40;;;;;;5131748;27;20096;-65
2022/05/12 03:28:15;;;;;;;8.07;2.92;;;15.50;66.40;;;;;;5129261;27;20024;-66
2022/05/12 03:30:44;;;;;;;7.45;2.95;;;15.50;66.60;;;;;;5130760;27;20034;-65
2022/05/12 03:33:12;;;;;;;7.95;3.10;;;15.40;66.60;;;;;;5124283;27;20066;-64
2022/05/12 03:35:37;;;;;;;8.98;3.58;;;15.40;66.70;;;;;;5132454;27;20524;-65
2022/05/12 03:38:04;;;;;;;8.45;3.25;;;15.40;66.80;;;;;;5125104;27;20059;-64
2022/05/12 03:40:30;;;;;;;8.13;3.10;;;15.40;66.90;;;;;;5137962;27;20352;-64
2022/05/12 03:42:58;;;;;;;8.40;3.03;;;15.40;67.60;;;;;;5130373;27;20047;-64
2022/05/12 03:45:28;;;;;;;9.73;3.47;;;15.30;67.00;;;;;;5132326;27;20380;-64
2022/05/12 03:47:55;;;;;;;9.75;3.53;;;15.30;67.00;;;;;;5132770;27;20026;-64
2022/05/12 03:50:23;;;;;;;9.07;3.65;;;15.30;67.10;;;;;;5128403;27;20031;-64
2022/05/12 03:52:50;;;;;;;6.35;2.83;;;15.30;67.10;;;;;;5126641;27;20058;-64
2022/05/12 03:55:18;;;;;;;8.20;3.58;;;15.30;67.10;;;;;;5131063;27;20028;-65
2022/05/12 03:57:46;;;;;;;9.75;3.47;;;15.30;67.20;;;;;;5121616;27;20043;-64
2022/05/12 04:00:15;;;;;;;9.50;3.35;;;15.30;67.20;;;;;;5129041;27;20332;-64
2022/05/12 04:02:41;;;;;;;8.43;3.28;;;15.30;67.40;;;;;;5128058;27;20039;-64
2022/05/12 04:05:08;;;;;;;9.15;3.53;;;15.30;67.40;;;;;;5126866;27;20027;-64
2022/05/12 04:07:34;;;;;;;9.15;3.53;;;15.30;67.40;;;;;;5128899;27;20035;-64
2022/05/12 04:10:01;;;;;;;9.10;3.35;;;15.30;67.50;;;;;;5130950;27;20019;-65
2022/05/12 04:12:27;;;;;;;11.20;3.70;;;15.30;67.50;;;;;;5120908;27;20031;-65
2022/05/12 04:14:52;;;;;;;8.07;3.47;;;15.30;67.60;;;;;;5128139;27;20031;-65
2022/05/12 04:17:18;;;;;;;8.70;3.50;;;15.30;67.60;;;;;;5135083;27;20029;-64
2022/05/12 04:19:45;;;;;;;7.95;4.05;;;15.20;67.60;;;;;;5119512;27;20023;-65
2022/05/12 04:22:11;;;;;;;7.13;3.53;;;15.20;67.70;;;;;;5117790;27;20028;-65
2022/05/12 04:24:37;;;;;;;8.10;3.35;;;15.20;67.70;;;;;;5135531;27;20069;-65
2022/05/12 04:27:03;;;;;;;10.00;4.00;;;15.20;67.70;;;;;;5133514;27;20035;-65
2022/05/12 04:29:28;;;;;;;7.50;3.33;;;15.20;67.70;;;;;;5115041;28;20372;-64
2022/05/12 04:31:55;;;;;;;8.70;3.50;;;15.20;67.70;;;;;;5130759;27;20032;-65
2022/05/12 04:37:05;;;;;;;8.25;3.30;;;15.20;67.80;;;;;;5135391;27;20079;-65
2022/05/12 04:39:32;;;;;;;6.72;3.40;;;15.20;67.90;;;;;;5122004;27;20455;-66
2022/05/12 04:41:58;;;;;;;7.30;3.03;;;15.20;67.90;;;;;;5126891;27;20031;-66
2022/05/12 04:44:26;;;;;;;6.50;2.80;;;15.20;67.90;;;;;;5121027;27;20118;-66
2022/05/12 04:46:52;;;;;;;7.57;2.60;;;15.20;67.90;;;;;;5118019;27;20448;-65
2022/05/12 04:49:18;;;;;;;6.55;3.15;;;15.30;67.90;;;;;;5125998;27;20027;-66
2022/05/12 04:51:44;;;;;;;9.02;3.17;;;15.30;67.90;;;;;;5120197;27;20027;-66
2022/05/12 04:54:09;;;;;;;8.73;2.90;;;15.30;67.90;;;;;;5128156;27;20028;-66
2022/05/12 04:56:40;;;;;;;6.20;2.72;;;15.30;67.80;;;;;;5129974;27;20432;-66
2022/05/12 04:59:07;;;;;;;6.65;2.90;;;15.30;67.90;;;;;;5127901;27;20026;-66
2022/05/12 05:01:33;;;;;;;9.57;3.20;;;15.30;67.80;;;;;;5116621;28;20034;-66
2022/05/12 05:04:00;;;;;;;7.97;3.00;;;15.30;67.90;;;;;;5123210;27;20035;-66
2022/05/12 05:06:29;;;;;;;5.03;2.45;;;15.30;67.80;;;;;;5117034;27;20414;-66
2022/05/12 05:08:55;;;;;;;7.57;2.85;;;15.40;67.90;;;;;;5117862;27;20104;-66
2022/05/12 05:11:21;;;;;;;6.05;2.55;;;15.40;67.70;;;;;;5137787;27;20029;-66
2022/05/12 05:13:47;;;;;;;6.60;3.00;;;15.40;67.70;;;;;;5125904;27;20083;-66
2022/05/12 05:16:13;;;;;;;5.95;2.95;;;15.40;67.70;;;;;;5136086;27;20023;-66
2022/05/12 05:18:39;;;;;;;8.02;3.10;;;15.50;67.60;;;;;;5131083;27;20058;-66
2022/05/12 05:21:05;;;;;;;7.72;3.10;;;15.70;67.40;;;;;;5135167;27;20019;-66
2022/05/12 05:23:30;;;;;;;7.15;2.67;;;15.80;67.10;;;;;;5134976;27;20026;-66
2022/05/12 05:25:56;;;;;;;8.30;2.80;;;15.80;66.90;;;;;;5134900;27;20031;-66
2022/05/12 05:28:22;;;;;;;6.80;2.88;;;15.90;66.90;;;;;;5136920;27;20042;-66
2022/05/12 05:30:49;;;;;;;6.65;2.85;;;15.90;66.90;;;;;;5122296;27;20016;-66
2022/05/12 05:33:16;;;;;;;8.85;3.45;;;16.00;66.80;;;;;;5116638;27;20030;-66
2022/05/12 05:35:41;;;;;;;8.65;3.00;;;16.10;66.60;;;;;;5128387;27;20085;-66
2022/05/12 05:38:08;;;;;;;8.77;3.38;;;16.20;66.50;;;;;;5135870;27;20051;-65
2022/05/12 05:40:33;;;;;;;7.57;3.45;;;16.30;66.30;;;;;;5125208;27;20111;-66
2022/05/12 05:42:59;;;;;;;6.55;3.25;;;16.30;66.10;;;;;;5119028;27;20114;-65
2022/05/12 05:45:26;;;;;;;8.90;3.22;;;16.50;65.90;;;;;;5128232;27;20110;-66
2022/05/12 05:47:57;;;;;;;7.22;3.05;;;16.50;65.60;;;;;;5116437;27;20448;-65
2022/05/12 05:50:28;;;;;;;7.80;3.03;;;16.70;65.50;;;;;;5119921;27;20103;-65
2022/05/12 05:55:39;;;;;;;8.48;3.53;;;16.80;65.10;;;;;;5133406;27;20035;-67
2022/05/12 05:58:05;;;;;;;11.30;3.45;;;16.90;64.90;;;;;;5136551;27;20351;-67
2022/05/12 06:00:32;;;;;;;9.73;3.50;;;17.00;64.70;;;;;;5126728;27;20023;-67
2022/05/12 06:02:58;;;;;;;7.65;3.30;;;17.10;64.50;;;;;;5117044;27;20074;-67
2022/05/12 06:05:24;;;;;;;8.45;3.95;;;17.20;64.30;;;;;;5133796;27;20421;-66
2022/05/12 06:07:52;;;;;;;9.07;3.70;;;17.30;64.10;;;;;;5132962;27;20058;-66
2022/05/12 06:10:17;;;;;;;9.75;3.55;;;17.40;63.80;;;;;;5125536;27;20023;-65
2022/05/12 06:12:43;;;;;;;7.63;2.75;;;17.50;63.50;;;;;;5114985;27;20038;-65
2022/05/12 06:15:10;;;;;;;8.63;3.88;;;17.60;63.30;;;;;;5133704;27;20022;-65
2022/05/12 06:17:36;;;;;;;9.98;3.72;;;17.80;63.00;;;;;;5132557;27;20035;-65
2022/05/12 06:20:04;;;;;;;9.27;3.78;;;18.00;62.60;;;;;;5120420;27;20068;-65
2022/05/12 06:22:30;;;;;;;9.18;3.28;;;18.00;62.30;;;;;;5118060;27;20087;-65
2022/05/12 06:24:55;;;;;;;9.45;3.42;;;18.20;62.10;;;;;;5112603;27;20051;-66
2022/05/12 06:27:22;;;;;;;8.50;3.83;;;18.30;62.00;;;;;;5130747;27;20035;-65
2022/05/12 06:29:48;;;;;;;11.35;3.90;;;18.50;61.60;;;;;;5127935;27;20052;-66
2022/05/12 06:32:15;;;;;;;8.05;3.60;;;18.60;61.20;;;;;;5128872;27;20037;-64
2022/05/12 06:34:46;;;;;;;9.55;3.25;;;18.80;60.90;;;;;;5112568;27;20071;-63
2022/05/12 06:37:12;;;;;;;8.23;3.47;;;19.00;60.50;;;;;;5127419;27;20035;-62
2022/05/12 06:39:38;;;;;;;10.65;4.63;;;19.20;60.00;;;;;;5120532;27;20477;-65
2022/05/12 06:42:05;;;;;;;11.75;4.30;;;19.30;59.80;;;;;;5123693;27;20514;-63
2022/05/12 06:44:42;;;;;;;8.45;3.08;;;19.40;59.40;;;;;;5124345;27;20026;-63
2022/05/12 06:47:14;;;;;;;9.55;3.83;;;19.50;59.30;;;;;;5122346;27;20282;-66
2022/05/12 06:49:40;;;;;;;10.65;3.47;;;19.50;59.00;;;;;;5121224;27;20224;-65
2022/05/12 06:52:07;;;;;;;8.88;3.50;;;19.60;58.80;;;;;;5135352;27;20527;-65
2022/05/12 06:54:34;;;;;;;9.57;3.55;;;19.80;58.50;;;;;;5128630;28;20371;-67
2022/05/12 06:57:00;;;;;;;8.50;3.55;;;19.90;58.20;;;;;;5129663;27;20030;-62
2022/05/12 06:59:26;;;;;;;12.02;3.67;;;20.00;58.00;;;;;;5119939;27;20039;-64
2022/05/12 07:01:52;;;;;;;6.93;3.67;;;20.20;57.70;;;;;;5116994;27;20067;-65
2022/05/12 07:04:18;;;;;;;9.07;3.83;;;20.30;57.30;;;;;;5117729;28;20360;-65
2022/05/12 07:06:44;;;;;;;11.43;3.70;;;20.40;57.00;;;;;;5126908;28;20039;-64
2022/05/12 07:09:10;;;;;;;9.88;3.65;;;20.60;56.60;;;;;;5127781;27;20052;-63
2022/05/12 07:11:36;;;;;;;8.75;3.10;;;20.60;56.40;;;;;;5127239;28;20026;-64
2022/05/12 07:14:02;;;;;;;8.45;3.60;;;20.80;56.10;;;;;;5115111;28;20043;-64
2022/05/12 07:16:27;;;;;;;9.88;4.30;;;20.90;55.80;;;;;;5114219;28;20062;-65
2022/05/12 07:18:53;;;;;;;8.57;3.75;;;21.00;55.60;;;;;;5108441;28;20063;-64
2022/05/12 07:26:48;;;;;;;9.18;3.60;;;21.20;54.80;;;;;;5115345;28;20028;-65
2022/05/12 07:29:18;;;;;;;9.45;3.83;;;21.10;54.80;;;;;;5128198;28;20049;-64
2022/05/12 07:31:44;;;;;;;8.52;3.22;;;21.10;54.70;;;;;;5115923;28;20032;-65
2022/05/12 07:34:12;;;;;;;9.02;3.50;;;21.20;54.40;;;;;;5115250;28;20027;-64
2022/05/12 07:36:43;;;;;;;9.02;3.20;;;21.30;54.20;;;;;;5119433;28;20393;-65
2022/05/12 07:39:09;;;;;;;8.73;3.22;;;21.50;53.70;;;;;;5133615;27;20027;-65
2022/05/12 07:41:34;;;;;;;8.43;3.45;;;21.60;53.50;;;;;;5134606;28;20027;-65
2022/05/12 07:44:01;;;;;;;8.82;3.08;;;21.70;53.00;;;;;;5118311;27;20023;-65
2022/05/12 07:46:28;;;;;;;7.00;3.00;;;21.70;52.60;;;;;;5113592;28;20119;-65
2022/05/12 07:48:55;;;;;;;8.90;3.20;;;21.70;52.40;;;;;;5123826;28;20031;-65
2022/05/12 07:51:21;;;;;;;9.35;2.85;;;21.80;52.10;;;;;;5134676;27;20023;-65
2022/05/12 07:53:48;;;;;;;9.45;2.90;;;21.90;51.70;;;;;;5120490;27;20027;-64
2022/05/12 07:56:16;;;;;;;7.07;2.95;;;21.90;51.70;;;;;;5113592;28;20356;-65
2022/05/12 07:58:42;;;;;;;7.97;3.08;;;21.90;51.50;;;;;;5113779;28;20031;-65
2022/05/12 08:01:09;;;;;;;8.20;2.72;;;22.00;51.30;;;;;;5112917;28;20120;-65
2022/05/12 08:03:34;;;;;;;7.50;2.88;;;22.00;51.10;;;;;;5115730;28;20035;-65
2022/05/12 08:06:01;;;;;;;6.63;2.53;;;22.10;50.80;;;;;;5114863;28;20023;-65
2022/05/12 08:08:26;;;;;;;7.55;2.50;;;22.30;50.50;;;;;;5115363;28;20027;-65
2022/05/12 08:10:52;;;;;;;6.95;2.60;;;22.60;49.90;;;;;;5116240;27;20026;-65
2022/05/12 08:13:18;;;;;;;5.30;1.90;;;22.80;49.30;;;;;;5118418;27;20059;-65
2022/05/12 08:15:49;;;;;;;5.47;2.05;;;23.00;48.80;;;;;;5128208;27;20027;-65
2022/05/12 08:18:19;;;;;;;7.53;2.53;;;23.10;48.20;;;;;;5135673;27;20023;-65
2022/05/12 08:20:45;;;;;;;7.33;2.63;;;23.30;47.70;;;;;;5130884;27;20023;-65
2022/05/12 08:23:12;;;;;;;6.38;2.17;;;23.40;47.50;;;;;;5117675;28;20070;-65
2022/05/12 08:25:39;;;;;;;9.50;2.28;;;23.40;47.00;;;;;;5128931;27;20126;-65
2022/05/12 08:28:05;;;;;;;7.45;2.28;;;23.30;46.90;;;;;;5117836;27;20028;-65
2022/05/12 08:30:31;;;;;;;9.10;2.70;;;23.10;46.80;;;;;;5117693;28;20034;-65
2022/05/12 08:32:57;;;;;;;8.27;2.30;;;22.90;47.00;;;;;;5117731;28;20127;-65
2022/05/12 08:35:24;;;;;;;4.80;1.85;;;23.00;47.10;;;;;;5129756;27;20054;-65
2022/05/12 08:37:49;;;;;;;6.45;2.42;;;23.10;46.80;;;;;;5137605;27;20035;-65
2022/05/12 08:40:30;;;;;;;6.28;2.00;;;23.30;46.30;;;;;;5135996;27;20404;-63
2022/05/12 08:43:01;;;;;;;8.55;2.65;;;23.20;46.00;;;;;;5137923;27;20043;-66
2022/05/12 08:45:27;;;;;;;7.00;2.03;;;23.20;45.50;;;;;;5137806;27;20055;-65
2022/05/12 08:47:56;;;;;;;6.22;2.08;;;23.20;45.40;;;;;;5137762;27;20023;-65
2022/05/12 08:50:26;;;;;;;7.90;2.70;;;23.30;44.80;;;;;;5118096;27;20322;-65
2022/05/12 08:52:55;;;;;;;6.18;2.10;;;23.50;44.50;;;;;;5117042;28;20032;-65
2022/05/12 08:55:40;;;;;;;7.53;2.10;;;23.70;44.20;;;;;;5118248;27;20050;-65
2022/05/12 08:58:16;;;;;;;7.85;2.20;;;23.90;43.90;;;;;;5117122;28;20024;-66
2022/05/12 09:00:54;;;;;;;6.80;2.60;;;23.90;43.50;;;;;;5122540;27;20019;-66
2022/05/12 09:03:59;;;;;;;7.43;2.05;;;23.90;43.40;;;;;;5129726;27;20031;-65
2022/05/12 09:06:38;;;;;;;7.78;2.17;;;24.00;43.30;;;;;;5118961;27;20345;-65
2022/05/12 09:09:12;;;;;;;6.38;1.80;;;24.20;43.20;;;;;;5116179;28;20039;-65
2022/05/12 09:11:43;;;;;;;7.15;2.08;;;24.30;43.00;;;;;;5116689;28;20440;-65
2022/05/12 09:14:13;;;;;;;;;;;24.30;42.60;;;;;;5132281;27;20058;-65
2022/05/12 09:16:38;;;;;;;7.35;2.03;;;24.40;42.80;;;;;;5135076;27;19908;-65
2022/05/12 09:19:05;;;;;;;5.90;1.95;;;24.50;42.60;;;;;;5129594;27;20023;-64
2022/05/12 09:21:37;;;;;;;5.60;1.85;;;24.50;42.20;;;;;;5131127;27;20110;-63
2022/05/12 09:24:07;;;;;;;9.50;2.65;;;24.70;41.70;;;;;;5135372;27;20027;-64
2022/05/12 09:26:42;;;;;;;7.03;2.45;;;24.80;41.50;;;;;;5137007;27;20019;-65
2022/05/12 09:29:20;;;;;;;5.35;1.70;;;24.90;41.10;;;;;;5136987;27;20042;-64
2022/05/12 09:31:51;;;;;;;6.20;1.73;;;25.00;40.70;;;;;;5131532;27;20145;-64
2022/05/12 09:34:26;;;;;;;4.00;1.60;;;25.10;40.70;;;;;;5128139;27;20028;-64
2022/05/12 09:36:53;;;;;;;6.47;1.95;;;25.10;40.50;;;;;;5116507;28;20027;-64
2022/05/12 09:39:35;;;;;;;5.75;1.85;;;25.10;40.40;;;;;;5129657;27;20028;-64
2022/05/12 09:42:05;;;;;;;4.70;1.55;;;24.80;40.20;;;;;;5132686;27;20043;-66
2022/05/12 09:44:32;;;;;;;5.13;2.00;;;24.50;40.60;;;;;;5155895;27;20509;-65
2022/05/12 09:47:10;;;;;;;4.72;1.63;;;24.50;40.70;;;;;;5147364;27;20308;-65
2022/05/12 09:49:42;;;;;;;6.28;1.52;;;24.70;40.40;;;;;;5135020;27;20452;-65
2022/05/12 09:52:27;;;;;;;8.32;1.80;;;24.80;40.10;;;;;;5135146;27;20444;-65
2022/05/12 09:55:19;;;;;;;6.47;1.77;;;24.60;39.80;;;;;;5137068;27;20420;-65
2022/05/12 09:57:52;;;;;;;3.95;1.60;;;24.10;40.10;;;;;;5135404;27;20035;-65
2022/05/12 10:00:30;;;;;;;5.03;1.70;;;24.00;40.30;;;;;;5136253;27;20031;-65
2022/05/12 10:08:40;;;;;;;6.97;1.67;;;23.90;39.80;;;;;;5115620;28;20031;-65
2022/05/12 10:11:10;;;;;;;9.65;2.25;;;23.60;40.00;;;;;;5115108;28;20089;-65
2022/05/12 10:13:42;;;;;;;4.47;1.60;;;23.50;40.00;;;;;;5114899;27;20143;-65
2022/05/12 10:16:10;;;;;;;4.72;1.58;;;23.60;39.90;;;;;;5115126;27;20345;-64
2022/05/12 10:18:55;;;;;;;7.53;1.65;;;23.90;39.70;;;;;;5118246;27;20064;-67
2022/05/12 10:21:45;;;;;;;6.80;2.15;;;24.00;39.10;;;;;;5120764;27;20061;-65
2022/05/12 10:24:39;;;;;;;5.10;1.30;;;23.80;39.00;;;;;;5125057;27;20395;-66
2022/05/12 10:27:29;;;;;;;2.50;0.90;;;23.70;38.90;;;;;;5131230;27;20092;-67
2022/05/12 10:30:36;;;;;;;4.43;1.42;;;23.90;38.70;;;;;;5094324;27;20360;-67
2022/05/12 10:33:16;;;;;;;4.82;1.23;;;24.20;38.20;;;;;;5117058;27;20467;-67
2022/05/12 10:36:01;;;;;;;3.30;1.10;;;24.50;37.80;;;;;;5129772;27;20054;-66
2022/05/12 10:39:17;;;;;;;3.35;1.23;;;24.40;37.50;;;;;;5133617;27;20355;-67
2022/05/12 10:41:53;;;;;;;3.47;1.30;;;24.00;37.40;;;;;;5070141;28;20086;-67
2022/05/12 10:44:24;;;;;;;2.00;1.05;;;23.90;37.80;;;;;;5088797;28;20044;-67
2022/05/12 10:47:08;;;;;;;3.80;1.45;;;23.80;37.70;;;;;;5090118;28;20058;-65
2022/05/12 10:49:53;;;;;;;3.90;1.42;;;23.80;37.60;;;;;;5071971;28;20361;-66
2022/05/12 10:52:59;;;;;;;5.45;1.48;;;23.60;37.70;;;;;;5073148;28;20044;-66
2022/05/12 10:55:48;;;;;;;4.53;1.60;;;23.20;38.30;;;;;;5071643;28;20562;-66
2022/05/12 10:58:29;;;;;;;3.97;1.42;;;23.20;38.40;;;;;;5085959;28;20457;-65
2022/05/12 11:01:25;;;;;;;4.18;1.20;;;23.20;38.40;;;;;;5090197;28;20044;-66
2022/05/12 11:04:03;;;;;;;3.05;1.00;;;23.40;38.30;;;;;;5075843;28;20044;-65
2022/05/12 11:06:59;;;;;;;4.60;1.50;;;23.60;37.90;;;;;;5064914;28;20060;-66
2022/05/12 11:09:41;;;;;;;3.38;1.35;;;23.80;37.80;;;;;;5078293;28;20028;-66
2022/05/12 11:12:22;;;;;;;3.60;1.23;;;23.90;37.90;;;;;;5090595;28;20133;-66
2022/05/12 11:15:11;;;;;;;8.13;1.80;;;24.10;37.40;;;;;;5073895;28;20119;-66
2022/05/12 11:17:57;;;;;;;2.58;1.15;;;24.30;37.40;;;;;;5112682;28;20192;-66
2022/05/12 11:20:32;;;;;;;3.40;1.05;;;24.40;37.40;;;;;;5124272;28;20043;-66
2022/05/12 11:23:26;;;;;;;5.95;1.40;;;24.40;37.40;;;;;;5132265;27;20462;-67
2022/05/12 11:26:13;;;;;;;5.70;1.52;;;24.20;37.40;;;;;;5123501;28;20034;-66
2022/05/12 11:32:02;;;;;;;4.97;1.30;;;23.90;38.00;;;;;;5121328;28;20026;-66
2022/05/12 11:34:28;;;;;;;3.42;1.40;;;23.80;38.10;;;;;;5117372;28;20067;-66
2022/05/12 11:36:56;;;;;;;4.45;1.50;;;23.60;38.10;;;;;;5120108;28;20031;-66
2022/05/12 11:39:40;;;;;;;4.68;1.40;;;23.50;38.10;;;;;;5132756;28;20385;-64
2022/05/12 11:42:20;;;;;;;5.80;1.40;;;23.50;38.00;;;;;;5126419;28;20046;-64
2022/05/12 11:45:08;;;;;;;6.18;1.60;;;23.50;37.70;;;;;;5130927;27;20110;-64
2022/05/12 11:47:55;;;;;;;3.88;1.48;;;23.40;38.00;;;;;;5137732;27;20080;-64
2022/05/12 11:50:42;;;;;;;4.55;1.10;;;23.40;37.90;;;;;;5125221;27;20070;-64
2022/05/12 11:53:18;;;;;;;4.35;1.33;;;23.30;38.00;;;;;;5120456;27;20028;-65
2022/05/12 11:56:03;;;;;;;4.55;1.50;;;23.20;38.10;;;;;;5137483;27;20035;-65
2022/05/12 11:58:38;;;;;;;5.43;1.58;;;23.10;37.90;;;;;;5122992;27;20102;-64
2022/05/12 12:01:07;;;;;;;4.90;1.52;;;23.00;38.00;;;;;;5137157;27;20050;-65
2022/05/12 12:03:32;;;;;;;4.15;1.38;;;22.90;38.10;;;;;;5118149;27;20066;-64
2022/05/12 12:06:05;;;;;;;3.92;1.48;;;22.80;38.30;;;;;;5134503;27;20055;-62
2022/05/12 12:08:30;;;;;;;6.20;1.63;;;22.90;38.40;;;;;;5131625;27;20022;-62
2022/05/12 12:11:14;;;;;;;4.80;1.50;;;22.90;38.20;;;;;;5136783;27;20439;-63
2022/05/12 12:13:44;;;;;;;2.72;1.15;;;22.90;38.00;;;;;;5127021;27;20027;-63
2022/05/12 12:16:25;;;;;;;3.28;1.10;;;22.80;38.00;;;;;;5127837;27;20070;-64
2022/05/12 12:19:01;;;;;;;3.73;1.37;;;22.80;37.70;;;;;;5136759;27;20118;-64
2022/05/12 12:21:36;;;;;;;4.25;1.48;;;22.80;37.60;;;;;;5137275;27;20027;-64
2022/05/12 12:24:19;;;;;;;4.88;1.45;;;22.70;37.70;;;;;;5117334;28;20088;-65
2022/05/12 12:26:50;;;;;;;3.70;1.30;;;22.60;37.60;;;;;;5119356;27;20402;-65
2022/05/12 12:29:21;;;;;;;4.32;1.35;;;22.70;37.60;;;;;;5136019;27;20027;-66
2022/05/12 12:31:51;;;;;;;3.38;1.30;;;22.70;37.50;;;;;;5135413;27;20035;-65
2022/05/12 12:34:27;;;;;;;4.63;1.20;;;22.70;37.20;;;;;;5137199;27;20154;-65
2022/05/12 12:37:05;;;;;;;5.00;1.40;;;22.80;36.90;;;;;;5135086;27;20297;-65
2022/05/12 12:39:41;;;;;;;4.43;1.30;;;22.70;37.40;;;;;;5099136;28;20115;-65
2022/05/12 12:42:30;;;;;;;4.18;1.40;;;22.70;37.00;;;;;;5117404;27;20389;-65
2022/05/12 12:45:06;;;;;;;3.63;1.23;;;22.70;37.00;;;;;;5129149;27;20031;-65
2022/05/12 12:47:54;;;;;;;3.42;1.52;;;22.80;37.30;;;;;;5131372;27;20027;-64
2022/05/12 12:50:29;;;;;;;5.10;1.23;;;22.70;36.80;;;;;;5131788;27;20038;-64
2022/05/12 12:52:56;;;;;;;3.72;1.50;;;22.70;36.80;;;;;;5123845;27;20448;-65
2022/05/12 12:58:42;;;;;;;4.70;1.40;;;22.70;37.00;;;;;;5138044;27;20046;-64
2022/05/12 13:01:16;;;;;;;4.05;1.10;;;22.70;37.00;;;;;;5137692;27;20031;-64
2022/05/12 13:03:53;;;;;;;3.50;1.13;;;22.70;36.80;;;;;;5123512;27;20050;-64
2022/05/12 13:06:34;;;;;;;2.65;1.15;;;22.60;36.90;;;;;;5117011;28;20023;-64
2022/05/12 13:09:12;;;;;;;4.15;1.10;;;22.60;36.60;;;;;;5115637;28;20080;-64
2022/05/12 13:11:39;;;;;;;3.75;1.30;;;22.50;36.70;;;;;;5116865;28;20046;-65
2022/05/12 13:14:08;;;;;;;4.18;1.20;;;22.50;37.00;;;;;;5117058;28;20032;-65
2022/05/12 13:16:39;;;;;;;3.13;1.60;;;22.60;37.00;;;;;;5116794;28;20360;-65
2022/05/12 13:19:06;;;;;;;3.72;1.20;;;22.60;37.10;;;;;;5116669;28;20097;-65
2022/05/12 13:21:36;;;;;;;12.27;2.38;;;22.70;37.30;;;;;;5116362;28;20036;-65
2022/05/12 13:24:04;;;;;;;11.93;2.70;;;22.70;37.10;;;;;;5116926;28;20061;-65
2022/05/12 13:26:31;;;;;;;4.97;1.65;;;22.70;37.00;;;;;;5131743;27;20030;-63
2022/05/12 13:28:58;;;;;;;4.53;1.58;;;22.70;36.70;;;;;;5116793;28;20027;-64